Time;durP1;ratioP1;P1;durP2;ratioP2;P2;SDS_P1;SDS_P2;PMS_P1;PMS_P2;Temp;Humidity;BMP_temperature;BMP_pressure;BME280_temperature;BME280_humidity;BME280_pressure;Samples;Min_cycle;Max_cycle;Signal;HPM_P1;HPM_P2
2023/10/15 00:02:13;;;;;;;0.10;0.10;;;;;;;;;;5109208;28;20048;-79
2023/10/15 00:04:40;;;;;;;0.10;0.10;;;;;;;;;;5085184;28;20060;-78
2023/10/15 00:07:06;;;;;;;0.10;0.10;;;;;;;;;;5111520;27;20135;-78
2023/10/15 00:09:33;;;;;;;0.00;0.00;;;;;;;;;;5112238;28;20048;-79
2023/10/15 00:11:59;;;;;;;0.00;0.00;;;;;;;;;;5087527;28;20048;-78
2023/10/15 00:14:26;;;;;;;0.10;0.10;;;;;;;;;;5106797;27;20111;-78
2023/10/15 00:16:55;;;;;;;0.05;0.05;;;;;;;;;;5108099;28;20052;-78
2023/10/15 00:19:22;;;;;;;0.10;0.10;;;;;;;;;;5112711;28;20052;-78
2023/10/15 00:21:48;;;;;;;0.08;0.08;;;;;;;;;;5111553;28;20134;-78
2023/10/15 00:24:15;;;;;;;0.00;0.00;;;;;;;;;;5111796;28;20036;-78
2023/10/15 00:26:41;;;;;;;0.05;0.05;;;;;;;;;;5111543;28;20127;-78
2023/10/15 00:29:08;;;;;;;0.00;0.00;;;;;;;;;;5105966;27;20052;-79
2023/10/15 00:31:34;;;;;;;0.00;0.00;;;;;;;;;;5109017;28;20497;-78
2023/10/15 00:34:01;;;;;;;0.00;0.00;;;;;;;;;;5110926;28;20117;-78
2023/10/15 00:36:27;;;;;;;0.10;0.10;;;;;;;;;;5111334;28;20055;-78
2023/10/15 00:38:54;;;;;;;0.03;0.03;;;;;;;;;;5102909;28;20053;-77
2023/10/15 00:41:20;;;;;;;0.00;0.00;;;;;;;;;;5106627;28;20090;-79
2023/10/15 00:43:58;;;;;;;0.00;0.00;;;;;;;;;;5106363;28;20056;-78
2023/10/15 00:46:27;;;;;;;0.00;0.00;;;;;;;;;;5108893;27;20114;-77
2023/10/15 00:48:56;;;;;;;0.10;0.10;;;;;;;;;;5091610;28;20522;-77
2023/10/15 00:51:23;;;;;;;0.00;0.00;;;;;;;;;;5102394;28;20587;-78
2023/10/15 00:53:57;;;;;;;0.10;0.10;;;;;;;;;;5103482;28;20461;-78
2023/10/15 00:56:28;;;;;;;0.08;0.08;;;;;;;;;;5108169;28;20121;-78
2023/10/15 00:59:17;;;;;;;0.00;0.00;;;;;;;;;;5105889;28;20056;-78
2023/10/15 01:04:31;;;;;;;0.10;0.10;;;;;;;;;;5104087;28;20494;-78
2023/10/15 01:07:04;;;;;;;0.00;0.00;;;;;;;;;;5100165;27;20815;-79
2023/10/15 01:09:30;;;;;;;0.00;0.00;;;;;;;;;;5102897;27;20513;-78
2023/10/15 01:11:58;;;;;;;0.00;0.00;;;;;;;;;;5106510;28;20098;-78
2023/10/15 01:14:27;;;;;;;0.05;0.05;;;;;;;;;;5106675;28;20056;-79
2023/10/15 01:16:55;;;;;;;0.00;0.00;;;;;;;;;;5107812;28;20044;-78
2023/10/15 01:19:31;;;;;;;0.00;0.00;;;;;;;;;;5104119;27;20048;-78
2023/10/15 01:22:02;;;;;;;0.00;0.00;;;;;;;;;;5109047;28;20106;-78
2023/10/15 01:24:32;;;;;;;0.10;0.10;;;;;;;;;;5103424;28;20897;-78
2023/10/15 01:27:09;;;;;;;0.00;0.00;;;;;;;;;;5103413;28;20521;-78
2023/10/15 01:29:38;;;;;;;0.10;0.10;;;;;;;;;;5106914;28;20127;-78
2023/10/15 01:32:10;;;;;;;0.10;0.10;;;;;;;;;;5088126;28;20060;-78
2023/10/15 01:34:37;;;;;;;0.05;0.05;;;;;;;;;;5103291;28;20609;-78
2023/10/15 01:37:13;;;;;;;0.10;0.10;;;;;;;;;;5102243;27;20606;-78
2023/10/15 01:39:40;;;;;;;0.10;0.10;;;;;;;;;;5184917;22;20039;-83
2023/10/15 01:42:24;;;;;;;0.10;0.10;;;;;;;;;;5104865;27;20079;-83
2023/10/15 01:44:53;;;;;;;0.10;0.10;;;;;;;;;;5105279;27;20521;-82
2023/10/15 01:47:28;;;;;;;0.10;0.10;;;;;;;;;;5106082;27;20063;-83
2023/10/15 01:49:56;;;;;;;0.10;0.10;;;;;;;;;;5108969;27;20391;-82
2023/10/15 01:52:29;;;;;;;0.10;0.10;;;;;;;;;;5107845;27;20056;-83
2023/10/15 01:54:59;;;;;;;0.10;0.10;;;;;;;;;;5116661;27;20103;-85
2023/10/15 01:57:28;;;;;;;0.10;0.10;;;;;;;;;;5117620;27;20060;-83
2023/10/15 02:00:17;;;;;;;0.10;0.10;;;;;;;;;;5111141;27;20536;-82
2023/10/15 02:02:48;;;;;;;0.10;0.10;;;;;;;;;;5124382;27;20512;-83
2023/10/15 02:06:04;;;;;;;0.10;0.10;;;;;;;;;;5123948;27;20051;-83
2023/10/15 02:08:04;;;;;;;0.10;0.10;;;;;;;;;;5112987;27;20052;-83
2023/10/15 02:10:31;;;;;;;0.10;0.10;;;;;;;;;;5109769;27;20052;-83
2023/10/15 02:13:04;;;;;;;0.00;0.00;;;;;;;;;;5109073;27;20051;-82
2023/10/15 02:15:39;;;;;;;0.10;0.10;;;;;;;;;;5113096;27;20079;-82
2023/10/15 02:18:08;;;;;;;0.10;0.10;;;;;;;;;;5106761;27;20061;-82
2023/10/15 02:21:08;;;;;;;0.10;0.10;;;;;;;;;;5119432;27;20588;-82
2023/10/15 02:23:32;;;;;;;0.10;0.10;;;;;;;;;;5128926;27;20051;-81
2023/10/15 02:25:59;;;;;;;0.10;0.10;;;;;;;;;;5109620;27;20904;-81
2023/10/15 02:28:27;;;;;;;0.00;0.00;;;;;;;;;;5129165;27;20063;-81
2023/10/15 02:33:30;;;;;;;0.10;0.10;;;;;;;;;;5119277;27;20113;-80
2023/10/15 02:35:59;;;;;;;0.00;0.00;;;;;;;;;;5110608;27;20052;-81
2023/10/15 02:38:34;;;;;;;0.00;0.00;;;;;;;;;;5112774;27;20044;-81
2023/10/15 02:41:06;;;;;;;0.10;0.10;;;;;;;;;;5108172;27;20135;-82
2023/10/15 02:43:40;;;;;;;0.10;0.10;;;;;;;;;;5114636;27;20071;-81
2023/10/15 02:46:23;;;;;;;0.10;0.10;;;;;;;;;;5111005;27;20135;-81
2023/10/15 02:48:53;;;;;;;0.00;0.00;;;;;;;;;;5126159;27;20142;-81
2023/10/15 02:51:23;;;;;;;0.10;0.10;;;;;;;;;;5113569;27;20158;-82
2023/10/15 02:53:52;;;;;;;0.00;0.00;;;;;;;;;;5111716;27;20055;-82
2023/10/15 02:56:22;;;;;;;0.00;0.00;;;;;;;;;;5114646;27;20815;-82
2023/10/15 02:58:50;;;;;;;0.10;0.10;;;;;;;;;;5111468;27;20087;-82
2023/10/15 03:01:19;;;;;;;0.00;0.00;;;;;;;;;;5120643;27;20960;-81
2023/10/15 03:03:50;;;;;;;0.10;0.10;;;;;;;;;;5115782;27;20051;-82
2023/10/15 03:06:24;;;;;;;0.10;0.10;;;;;;;;;;5114209;27;20051;-82
2023/10/15 03:08:51;;;;;;;0.05;0.05;;;;;;;;;;5113279;27;20060;-82
2023/10/15 03:11:21;;;;;;;0.10;0.10;;;;;;;;;;5114835;27;20056;-82
2023/10/15 03:14:00;;;;;;;0.10;0.10;;;;;;;;;;5111628;27;20548;-82
2023/10/15 03:16:32;;;;;;;0.10;0.10;;;;;;;;;;5117128;27;20501;-83
2023/10/15 03:19:17;;;;;;;0.00;0.00;;;;;;;;;;5117637;27;20100;-82
2023/10/15 03:21:44;;;;;;;0.00;0.00;;;;;;;;;;5115380;27;20079;-82
2023/10/15 03:24:10;;;;;;;0.10;0.10;;;;;;;;;;5107815;27;21424;-83
2023/10/15 03:26:37;;;;;;;0.00;0.00;;;;;;;;;;5117491;27;20093;-82
2023/10/15 03:29:09;;;;;;;0.00;0.00;;;;;;;;;;5111425;27;20047;-82
2023/10/15 03:31:45;;;;;;;0.10;0.10;;;;;;;;;;5117807;27;20495;-83
2023/10/15 03:39:24;;;;;;;2.83;2.63;;;;;;;;;;5116109;27;20055;-84
2023/10/15 03:41:54;;;;;;;0.10;0.10;;;;;;;;;;5122989;27;20050;-83
2023/10/15 03:44:27;;;;;;;0.10;0.10;;;;;;;;;;5108274;27;20051;-84
2023/10/15 03:47:06;;;;;;;0.10;0.10;;;;;;;;;;5113636;27;20056;-84
2023/10/15 03:49:32;;;;;;;0.10;0.10;;;;;;;;;;5109568;27;20052;-81
2023/10/15 03:51:59;;;;;;;0.00;0.00;;;;;;;;;;5111821;27;20055;-83
2023/10/15 03:54:26;;;;;;;0.10;0.10;;;;;;;;;;5127315;27;20056;-83
2023/10/15 03:56:52;;;;;;;0.10;0.10;;;;;;;;;;5109649;27;20067;-83
2023/10/15 03:59:19;;;;;;;0.10;0.10;;;;;;;;;;5126506;27;20048;-83
2023/10/15 04:01:48;;;;;;;0.00;0.00;;;;;;;;;;5124592;27;20065;-83
2023/10/15 04:04:20;;;;;;;0.00;0.00;;;;;;;;;;5127750;27;20062;-81
2023/10/15 04:07:32;;;;;;;0.10;0.10;;;;;;;;;;5105461;27;20048;-82
2023/10/15 04:09:36;;;;;;;0.10;0.10;;;;;;;;;;5117544;27;20184;-83
2023/10/15 04:12:06;;;;;;;0.10;0.10;;;;;;;;;;5116683;27;20097;-81
2023/10/15 04:14:34;;;;;;;0.10;0.10;;;;;;;;;;5112912;27;20137;-83
2023/10/15 04:17:01;;;;;;;0.10;0.10;;;;;;;;;;5120868;27;20035;-83
2023/10/15 04:19:29;;;;;;;0.10;0.10;;;;;;;;;;5120354;27;20150;-84
2023/10/15 04:22:14;;;;;;;0.00;0.00;;;;;;;;;;5119788;27;20490;-84
2023/10/15 04:24:49;;;;;;;0.10;0.10;;;;;;;;;;5119411;27;20139;-83
2023/10/15 04:27:17;;;;;;;0.10;0.10;;;;;;;;;;5130968;27;20033;-83
2023/10/15 04:29:55;;;;;;;0.10;0.10;;;;;;;;;;5120285;27;20111;-84
2023/10/15 04:35:08;;;;;;;0.10;0.10;;;;;;;;;;5129046;27;20036;-84
2023/10/15 04:37:36;;;;;;;0.10;0.10;;;;;;;;;;5133152;27;20062;-82
2023/10/15 04:40:05;;;;;;;0.10;0.10;;;;;;;;;;5116420;27;20094;-83
2023/10/15 04:42:48;;;;;;;0.10;0.10;;;;;;;;;;5120842;27;20093;-83
2023/10/15 04:48:01;;;;;;;0.10;0.10;;;;;;;;;;5129593;27;20086;-84
2023/10/15 04:50:29;;;;;;;0.10;0.10;;;;;;;;;;5110125;27;20048;-83
2023/10/15 04:53:12;;;;;;;0.90;0.90;;;;;;;;;;5114792;27;20139;-82
2023/10/15 04:55:40;;;;;;;0.10;0.10;;;;;;;;;;5116726;27;20054;-83
2023/10/15 04:58:07;;;;;;;0.10;0.10;;;;;;;;;;5118896;27;20062;-83
2023/10/15 05:00:35;;;;;;;0.10;0.10;;;;;;;;;;5119137;27;20486;-82
2023/10/15 05:03:02;;;;;;;0.10;0.10;;;;;;;;;;5113125;27;20040;-82
2023/10/15 05:05:31;;;;;;;0.08;0.08;;;;;;;;;;5118046;27;20047;-82
2023/10/15 05:08:00;;;;;;;0.03;0.03;;;;;;;;;;5114926;27;20051;-82
2023/10/15 05:10:31;;;;;;;0.10;0.10;;;;;;;;;;5116304;27;20056;-81
2023/10/15 05:12:59;;;;;;;0.10;0.10;;;;;;;;;;5119382;27;20071;-82
2023/10/15 05:15:26;;;;;;;0.10;0.10;;;;;;;;;;5131390;27;20094;-83
2023/10/15 05:17:52;;;;;;;0.05;0.05;;;;;;;;;;5112267;27;20040;-83
2023/10/15 05:20:20;;;;;;;0.08;0.08;;;;;;;;;;5112771;27;20056;-83
2023/10/15 05:22:47;;;;;;;0.00;0.00;;;;;;;;;;5116952;27;20048;-82
2023/10/15 05:25:17;;;;;;;0.08;0.08;;;;;;;;;;5136050;27;20059;-81
2023/10/15 05:27:44;;;;;;;0.10;0.10;;;;;;;;;;5114496;27;20046;-81
2023/10/15 05:30:15;;;;;;;0.10;0.10;;;;;;;;;;5129408;27;20055;-82
2023/10/15 05:32:43;;;;;;;0.00;0.00;;;;;;;;;;5108293;27;20058;-82
2023/10/15 05:35:10;;;;;;;0.10;0.10;;;;;;;;;;5113627;27;20038;-83
2023/10/15 05:37:39;;;;;;;0.10;0.10;;;;;;;;;;5129525;27;20048;-84
2023/10/15 05:40:06;;;;;;;0.00;0.00;;;;;;;;;;5111611;27;20052;-84
2023/10/15 05:42:33;;;;;;;0.00;0.00;;;;;;;;;;5113172;27;20063;-82
2023/10/15 05:45:00;;;;;;;0.10;0.10;;;;;;;;;;5125203;27;20051;-83
2023/10/15 05:47:28;;;;;;;0.00;0.00;;;;;;;;;;5110389;27;20067;-84
2023/10/15 05:49:54;;;;;;;0.10;0.10;;;;;;;;;;5115294;27;20197;-83
2023/10/15 05:52:22;;;;;;;0.00;0.00;;;;;;;;;;5112518;27;20044;-82
2023/10/15 05:54:53;;;;;;;0.08;0.08;;;;;;;;;;5107593;27;20051;-84
2023/10/15 05:57:21;;;;;;;0.00;0.00;;;;;;;;;;5129725;27;20062;-82
2023/10/15 05:59:48;;;;;;;0.30;0.30;;;;;;;;;;5132516;27;20051;-83
2023/10/15 06:02:15;;;;;;;0.00;0.00;;;;;;;;;;5107498;27;20046;-83
2023/10/15 06:04:43;;;;;;;0.05;0.05;;;;;;;;;;5111750;27;20110;-83
2023/10/15 06:07:10;;;;;;;0.00;0.00;;;;;;;;;;5113464;27;20429;-80
2023/10/15 06:09:37;;;;;;;0.00;0.00;;;;;;;;;;5116464;27;20876;-82
2023/10/15 06:12:05;;;;;;;0.00;0.00;;;;;;;;;;5112283;27;20056;-82
2023/10/15 06:14:32;;;;;;;0.10;0.10;;;;;;;;;;5118280;27;20048;-82
2023/10/15 06:16:59;;;;;;;0.10;0.10;;;;;;;;;;5118905;27;20055;-81
2023/10/15 06:19:26;;;;;;;0.05;0.05;;;;;;;;;;5113180;27;20043;-83
2023/10/15 06:21:53;;;;;;;0.00;0.00;;;;;;;;;;5129035;27;20375;-82
2023/10/15 06:24:19;;;;;;;0.10;0.10;;;;;;;;;;5129412;27;20040;-80
2023/10/15 06:26:45;;;;;;;0.00;0.00;;;;;;;;;;5121216;27;20112;-82
2023/10/15 06:29:13;;;;;;;0.00;0.00;;;;;;;;;;5125372;27;20036;-80
2023/10/15 06:31:40;;;;;;;0.00;0.00;;;;;;;;;;5108977;27;20952;-82
2023/10/15 06:34:09;;;;;;;0.10;0.10;;;;;;;;;;5109553;27;20058;-82
2023/10/15 06:36:35;;;;;;;0.00;0.00;;;;;;;;;;5104534;27;20044;-81
2023/10/15 06:39:03;;;;;;;0.00;0.00;;;;;;;;;;5104635;27;20087;-82
2023/10/15 06:41:29;;;;;;;0.08;0.08;;;;;;;;;;5101451;27;20059;-83
2023/10/15 06:43:57;;;;;;;0.00;0.00;;;;;;;;;;5124471;27;20056;-83
2023/10/15 06:46:23;;;;;;;0.10;0.10;;;;;;;;;;5106005;27;20059;-81
2023/10/15 06:48:51;;;;;;;0.10;0.10;;;;;;;;;;5105667;27;20063;-80
2023/10/15 06:51:18;;;;;;;0.10;0.10;;;;;;;;;;5106483;27;20048;-82
2023/10/15 06:53:45;;;;;;;0.03;0.03;;;;;;;;;;5107726;27;20055;-80
2023/10/15 06:56:11;;;;;;;0.10;0.10;;;;;;;;;;5108608;27;20052;-82
2023/10/15 06:58:38;;;;;;;0.00;0.00;;;;;;;;;;5108371;27;20059;-82
2023/10/15 07:01:07;;;;;;;0.10;0.10;;;;;;;;;;5114019;27;20093;-81
2023/10/15 07:03:34;;;;;;;0.00;0.00;;;;;;;;;;5110418;28;20056;-83
2023/10/15 07:06:04;;;;;;;0.03;0.03;;;;;;;;;;5098227;28;20758;-82
2023/10/15 07:08:30;;;;;;;0.00;0.00;;;;;;;;;;5117887;27;20440;-83
2023/10/15 07:10:58;;;;;;;0.00;0.00;;;;;;;;;;5112976;28;20288;-83
2023/10/15 07:13:24;;;;;;;0.00;0.00;;;;;;;;;;5117797;27;20151;-83
2023/10/15 07:15:51;;;;;;;0.00;0.00;;;;;;;;;;5124913;27;20044;-82
2023/10/15 07:18:17;;;;;;;0.00;0.00;;;;;;;;;;5139812;27;20062;-84
2023/10/15 07:20:44;;;;;;;0.00;0.00;;;;;;;;;;5115889;27;20405;-82
2023/10/15 07:23:10;;;;;;;0.00;0.00;;;;;;;;;;5137628;27;20056;-84
2023/10/15 07:25:37;;;;;;;0.00;0.00;;;;;;;;;;5108570;27;20502;-83
2023/10/15 07:28:04;;;;;;;0.10;0.10;;;;;;;;;;5128039;27;20062;-83
2023/10/15 07:30:31;;;;;;;0.00;0.00;;;;;;;;;;5116301;27;20059;-81
2023/10/15 07:33:01;;;;;;;0.10;0.10;;;;;;;;;;5111084;27;20047;-83
2023/10/15 07:35:29;;;;;;;0.00;0.00;;;;;;;;;;5119547;27;20082;-83
2023/10/15 07:37:56;;;;;;;0.10;0.10;;;;;;;;;;5111328;27;20061;-83
2023/10/15 07:40:26;;;;;;;0.10;0.10;;;;;;;;;;5128007;22;20043;-77
2023/10/15 07:42:53;;;;;;;0.00;0.00;;;;;;;;;;5151983;27;20047;-77
2023/10/15 07:45:26;;;;;;;0.00;0.00;;;;;;;;;;5150755;27;20082;-77
2023/10/15 07:47:54;;;;;;;0.00;0.00;;;;;;;;;;5139567;27;20050;-77
2023/10/15 07:50:23;;;;;;;0.00;0.00;;;;;;;;;;5130244;27;20079;-76
2023/10/15 07:52:51;;;;;;;0.00;0.00;;;;;;;;;;5128044;27;20859;-76
2023/10/15 07:55:17;;;;;;;0.10;0.10;;;;;;;;;;5117005;27;20033;-77
2023/10/15 07:57:44;;;;;;;0.00;0.00;;;;;;;;;;5131236;27;20398;-78
2023/10/15 08:00:15;;;;;;;0.10;0.10;;;;;;;;;;5131939;27;20056;-78
2023/10/15 08:02:49;;;;;;;0.10;0.10;;;;;;;;;;5127091;27;20047;-77
2023/10/15 08:05:17;;;;;;;0.00;0.00;;;;;;;;;;5104837;27;20054;-78
2023/10/15 08:07:43;;;;;;;0.08;0.08;;;;;;;;;;5122425;27;20086;-77
2023/10/15 08:10:10;;;;;;;0.00;0.00;;;;;;;;;;5130817;27;20938;-78
2023/10/15 08:12:37;;;;;;;0.00;0.00;;;;;;;;;;5122567;27;20165;-77
2023/10/15 08:15:04;;;;;;;0.10;0.10;;;;;;;;;;5125509;27;20523;-76
2023/10/15 08:17:31;;;;;;;0.00;0.00;;;;;;;;;;5134044;27;21398;-78
2023/10/15 08:19:58;;;;;;;0.00;0.00;;;;;;;;;;5129333;27;20513;-78
2023/10/15 08:22:28;;;;;;;0.10;0.10;;;;;;;;;;5126046;27;20051;-78
2023/10/15 08:24:55;;;;;;;0.00;0.00;;;;;;;;;;5113614;27;20056;-77
2023/10/15 08:27:22;;;;;;;0.00;0.00;;;;;;;;;;5127407;27;20509;-79
2023/10/15 08:29:48;;;;;;;0.00;0.00;;;;;;;;;;5116879;27;20066;-78
2023/10/15 08:32:18;;;;;;;0.00;0.00;;;;;;;;;;5118789;27;20156;-78
2023/10/15 08:34:44;;;;;;;0.10;0.10;;;;;;;;;;5117837;27;20059;-78
2023/10/15 08:37:11;;;;;;;0.05;0.05;;;;;;;;;;5127145;27;20421;-80
2023/10/15 08:39:40;;;;;;;0.00;0.00;;;;;;;;;;5102830;27;20134;-79
2023/10/15 08:42:11;;;;;;;0.10;0.10;;;;;;;;;;5121257;27;20125;-78
2023/10/15 08:44:38;;;;;;;0.00;0.00;;;;;;;;;;5123539;27;20113;-79
2023/10/15 08:47:06;;;;;;;0.05;0.05;;;;;;;;;;5125268;27;20536;-77
2023/10/15 08:49:37;;;;;;;1.85;1.33;;;;;;;;;;5122440;27;20051;-78
2023/10/15 08:52:06;;;;;;;0.10;0.10;;;;;;;;;;5106450;27;20524;-78
2023/10/15 08:54:38;;;;;;;0.10;0.10;;;;;;;;;;5125356;27;20056;-77
2023/10/15 08:57:08;;;;;;;0.10;0.10;;;;;;;;;;5121876;27;20056;-80
2023/10/15 08:59:38;;;;;;;0.10;0.10;;;;;;;;;;5130519;27;20052;-81
2023/10/15 09:02:08;;;;;;;0.10;0.10;;;;;;;;;;5116900;27;20055;-80
2023/10/15 09:04:35;;;;;;;0.10;0.10;;;;;;;;;;5128193;27;20060;-81
2023/10/15 09:07:04;;;;;;;0.00;0.00;;;;;;;;;;5127496;27;20110;-80
2023/10/15 09:09:34;;;;;;;0.70;0.70;;;;;;;;;;5128175;27;20051;-81
2023/10/15 09:12:01;;;;;;;0.10;0.10;;;;;;;;;;5120928;27;20136;-78
2023/10/15 09:14:40;;;;;;;0.10;0.10;;;;;;;;;;5113754;27;20756;-81
2023/10/15 09:17:09;;;;;;;0.10;0.10;;;;;;;;;;5119201;27;20059;-79
2023/10/15 09:19:40;;;;;;;0.00;0.00;;;;;;;;;;5114903;27;20052;-80
2023/10/15 09:22:14;;;;;;;0.10;0.10;;;;;;;;;;5126415;27;20051;-80
2023/10/15 09:24:41;;;;;;;0.00;0.00;;;;;;;;;;5118183;27;20059;-81
2023/10/15 09:27:07;;;;;;;0.10;0.10;;;;;;;;;;5125238;27;20071;-81
2023/10/15 09:29:34;;;;;;;0.10;0.10;;;;;;;;;;5104461;27;20074;-80
2023/10/15 09:32:04;;;;;;;0.10;0.10;;;;;;;;;;5125034;27;20480;-82
2023/10/15 09:34:32;;;;;;;0.10;0.10;;;;;;;;;;5124434;27;20496;-80
2023/10/15 09:36:59;;;;;;;0.10;0.10;;;;;;;;;;5119164;27;20194;-78
2023/10/15 09:39:26;;;;;;;0.00;0.00;;;;;;;;;;5114178;27;20073;-82
2023/10/15 09:41:54;;;;;;;0.00;0.00;;;;;;;;;;5114947;27;20132;-81
2023/10/15 09:44:20;;;;;;;0.20;0.20;;;;;;;;;;5122007;27;20055;-80
2023/10/15 09:46:47;;;;;;;0.10;0.10;;;;;;;;;;5123257;27;20098;-79
2023/10/15 09:49:14;;;;;;;0.10;0.10;;;;;;;;;;5121752;27;20127;-82
2023/10/15 09:51:41;;;;;;;0.25;0.25;;;;;;;;;;5119797;27;20112;-81
2023/10/15 09:54:11;;;;;;;0.10;0.10;;;;;;;;;;5098873;27;20521;-80
2023/10/15 09:56:40;;;;;;;0.10;0.10;;;;;;;;;;5118892;27;20051;-79
2023/10/15 09:59:09;;;;;;;0.10;0.10;;;;;;;;;;5127205;27;20082;-77
2023/10/15 10:01:38;;;;;;;0.10;0.10;;;;;;;;;;5103141;27;20476;-79
2023/10/15 10:04:18;;;;;;;0.10;0.10;;;;;;;;;;5119558;27;20059;-77
2023/10/15 10:07:04;;;;;;;0.10;0.10;;;;;;;;;;5108468;27;20835;-79
2023/10/15 10:09:36;;;;;;;0.10;0.10;;;;;;;;;;5113556;27;20517;-80
2023/10/15 10:12:11;;;;;;;0.10;0.10;;;;;;;;;;5121536;27;20445;-80
2023/10/15 10:15:04;;;;;;;0.40;0.40;;;;;;;;;;5123699;27;20143;-79
2023/10/15 10:17:32;;;;;;;0.10;0.10;;;;;;;;;;5085673;27;20101;-79
2023/10/15 10:20:00;;;;;;;0.10;0.10;;;;;;;;;;5121430;27;20078;-79
2023/10/15 10:22:27;;;;;;;0.10;0.10;;;;;;;;;;5116141;27;20134;-79
2023/10/15 10:24:55;;;;;;;0.10;0.10;;;;;;;;;;5105160;27;20101;-77
2023/10/15 10:27:21;;;;;;;0.10;0.10;;;;;;;;;;5119923;27;20056;-79
2023/10/15 10:29:54;;;;;;;0.10;0.10;;;;;;;;;;5101811;27;20141;-77
2023/10/15 10:32:21;;;;;;;0.10;0.10;;;;;;;;;;5117244;27;20080;-79
2023/10/15 10:35:06;;;;;;;0.00;0.00;;;;;;;;;;5104816;27;20052;-80
2023/10/15 10:37:33;;;;;;;0.10;0.10;;;;;;;;;;5108085;27;20569;-78
2023/10/15 10:39:59;;;;;;;0.10;0.10;;;;;;;;;;5119413;27;20588;-79
2023/10/15 10:42:29;;;;;;;0.10;0.10;;;;;;;;;;5123406;27;21534;-79
2023/10/15 10:44:59;;;;;;;0.10;0.10;;;;;;;;;;5107239;27;21063;-81
2023/10/15 10:47:29;;;;;;;0.10;0.10;;;;;;;;;;5116738;27;20059;-78
2023/10/15 10:49:58;;;;;;;0.10;0.10;;;;;;;;;;5126497;27;20079;-80
2023/10/15 10:52:29;;;;;;;0.10;0.10;;;;;;;;;;5108055;27;20051;-78
2023/10/15 10:54:56;;;;;;;0.20;0.20;;;;;;;;;;5124476;27;20278;-79
2023/10/15 10:57:27;;;;;;;0.10;0.10;;;;;;;;;;5125187;27;20262;-81
2023/10/15 10:59:54;;;;;;;2.90;2.45;;;;;;;;;;5136307;27;20120;-78
2023/10/15 11:02:20;;;;;;;0.10;0.10;;;;;;;;;;5133526;27;20079;-79
2023/10/15 11:04:47;;;;;;;0.10;0.10;;;;;;;;;;5128822;27;20512;-80
2023/10/15 11:07:15;;;;;;;0.10;0.10;;;;;;;;;;5120896;27;20133;-80
2023/10/15 11:09:42;;;;;;;0.10;0.10;;;;;;;;;;5131053;27;20043;-80
2023/10/15 11:12:09;;;;;;;0.10;0.10;;;;;;;;;;5109273;27;20055;-80
2023/10/15 11:14:36;;;;;;;0.10;0.10;;;;;;;;;;5132528;27;20052;-80
2023/10/15 11:17:05;;;;;;;0.10;0.10;;;;;;;;;;5140058;27;20893;-79
2023/10/15 11:19:34;;;;;;;0.15;0.15;;;;;;;;;;5129017;27;20052;-80
2023/10/15 11:22:01;;;;;;;0.22;0.20;;;;;;;;;;5124900;27;20106;-81
2023/10/15 11:24:27;;;;;;;0.10;0.10;;;;;;;;;;5127631;27;21778;-80
2023/10/15 11:26:54;;;;;;;0.10;0.10;;;;;;;;;;5131108;27;20129;-80
2023/10/15 11:29:25;;;;;;;0.10;0.10;;;;;;;;;;5132168;27;20138;-78
2023/10/15 11:31:56;;;;;;;0.10;0.10;;;;;;;;;;5127258;27;20060;-81
2023/10/15 11:34:24;;;;;;;0.10;0.10;;;;;;;;;;5123294;27;20052;-81
2023/10/15 11:36:52;;;;;;;0.10;0.10;;;;;;;;;;5112489;27;20055;-81
2023/10/15 11:39:19;;;;;;;0.10;0.10;;;;;;;;;;5128424;27;20075;-77
2023/10/15 11:41:51;;;;;;;0.10;0.10;;;;;;;;;;5114156;27;20048;-80
2023/10/15 11:44:26;;;;;;;0.10;0.10;;;;;;;;;;5127354;27;20134;-80
2023/10/15 11:46:54;;;;;;;0.10;0.10;;;;;;;;;;5130756;27;20108;-79
2023/10/15 11:49:22;;;;;;;0.10;0.10;;;;;;;;;;5126697;27;20529;-81
2023/10/15 11:51:55;;;;;;;0.10;0.10;;;;;;;;;;5127650;27;20097;-80
2023/10/15 11:54:23;;;;;;;0.10;0.10;;;;;;;;;;5109727;27;20055;-78
2023/10/15 11:56:50;;;;;;;0.10;0.10;;;;;;;;;;5126151;27;20479;-79
2023/10/15 11:59:16;;;;;;;0.10;0.10;;;;;;;;;;5127402;27;20160;-80
2023/10/15 12:01:51;;;;;;;0.10;0.10;;;;;;;;;;5109784;27;20138;-77
2023/10/15 12:04:17;;;;;;;0.10;0.10;;;;;;;;;;5121043;27;20055;-79
2023/10/15 12:06:44;;;;;;;0.10;0.10;;;;;;;;;;5126605;27;20571;-80
2023/10/15 12:09:16;;;;;;;0.10;0.10;;;;;;;;;;5127678;27;20051;-80
2023/10/15 12:11:44;;;;;;;0.10;0.10;;;;;;;;;;5118884;27;20055;-79
2023/10/15 12:14:12;;;;;;;0.10;0.10;;;;;;;;;;5119470;27;20048;-78
2023/10/15 12:16:43;;;;;;;0.10;0.10;;;;;;;;;;5121072;27;20059;-80
2023/10/15 12:19:10;;;;;;;0.10;0.10;;;;;;;;;;5129591;27;20085;-77
2023/10/15 12:21:37;;;;;;;0.10;0.10;;;;;;;;;;5121799;27;20086;-80
2023/10/15 12:24:11;;;;;;;0.10;0.10;;;;;;;;;;5116704;27;20064;-79
2023/10/15 12:26:37;;;;;;;0.10;0.10;;;;;;;;;;5117505;27;20055;-79
2023/10/15 12:29:05;;;;;;;0.10;0.10;;;;;;;;;;5114747;27;20050;-79
2023/10/15 12:31:52;;;;;;;0.10;0.10;;;;;;;;;;5125952;27;20593;-79
2023/10/15 12:34:20;;;;;;;0.10;0.10;;;;;;;;;;5122786;27;20108;-77
2023/10/15 12:36:46;;;;;;;0.10;0.10;;;;;;;;;;5126633;27;20054;-78
2023/10/15 12:39:15;;;;;;;0.10;0.10;;;;;;;;;;5112848;27;20060;-79
2023/10/15 12:41:41;;;;;;;0.10;0.10;;;;;;;;;;5122255;27;20056;-77
2023/10/15 12:44:11;;;;;;;0.10;0.10;;;;;;;;;;5123330;27;20048;-78
2023/10/15 12:46:37;;;;;;;0.10;0.10;;;;;;;;;;5119824;27;20055;-77
2023/10/15 12:49:05;;;;;;;0.10;0.10;;;;;;;;;;5124082;27;20127;-79
2023/10/15 12:51:31;;;;;;;0.10;0.10;;;;;;;;;;5114281;27;20093;-79
2023/10/15 12:53:59;;;;;;;17.73;1.20;;;;;;;;;;5126244;27;20054;-78
2023/10/15 12:56:29;;;;;;;0.10;0.10;;;;;;;;;;5123848;27;20136;-78
2023/10/15 12:58:55;;;;;;;0.52;0.52;;;;;;;;;;5125648;27;20059;-80
2023/10/15 13:01:22;;;;;;;0.10;0.10;;;;;;;;;;5125651;27;20052;-79
2023/10/15 13:03:49;;;;;;;0.05;0.05;;;;;;;;;;5118780;27;20526;-79
2023/10/15 13:06:16;;;;;;;0.10;0.10;;;;;;;;;;5124268;27;20059;-80
2023/10/15 13:08:42;;;;;;;0.10;0.10;;;;;;;;;;5130124;27;20104;-77
2023/10/15 13:11:11;;;;;;;0.10;0.10;;;;;;;;;;5118402;27;20056;-78
2023/10/15 13:13:38;;;;;;;0.10;0.10;;;;;;;;;;5122754;27;20055;-76
2023/10/15 13:16:04;;;;;;;0.10;0.10;;;;;;;;;;5117856;27;20052;-78
2023/10/15 13:18:38;;;;;;;0.10;0.10;;;;;;;;;;5103418;27;20583;-79
2023/10/15 13:21:04;;;;;;;0.20;0.20;;;;;;;;;;5098238;27;20055;-79
2023/10/15 13:23:31;;;;;;;0.10;0.10;;;;;;;;;;5124101;27;20128;-79
2023/10/15 13:25:58;;;;;;;0.10;0.10;;;;;;;;;;5122238;27;20051;-77
2023/10/15 13:28:24;;;;;;;0.10;0.10;;;;;;;;;;5103751;27;20063;-79
2023/10/15 13:30:50;;;;;;;0.10;0.10;;;;;;;;;;5125507;27;20056;-79
2023/10/15 13:33:17;;;;;;;0.10;0.10;;;;;;;;;;5125789;27;20101;-78
2023/10/15 13:35:43;;;;;;;0.10;0.10;;;;;;;;;;5123501;27;20055;-79
2023/10/15 13:38:10;;;;;;;0.10;0.10;;;;;;;;;;5113897;27;20052;-80
2023/10/15 13:40:38;;;;;;;0.10;0.10;;;;;;;;;;5118116;27;20051;-77
2023/10/15 13:43:05;;;;;;;0.10;0.10;;;;;;;;;;5116462;27;20044;-77
2023/10/15 13:45:31;;;;;;;0.10;0.10;;;;;;;;;;5118269;27;20036;-77
2023/10/15 13:47:58;;;;;;;0.10;0.10;;;;;;;;;;5124850;27;20149;-77
2023/10/15 13:50:24;;;;;;;0.10;0.10;;;;;;;;;;5124504;27;20107;-79
2023/10/15 13:52:53;;;;;;;0.10;0.10;;;;;;;;;;5125677;27;20085;-79
2023/10/15 13:55:20;;;;;;;0.10;0.10;;;;;;;;;;5120548;27;20426;-78
2023/10/15 13:57:48;;;;;;;0.10;0.10;;;;;;;;;;5123174;27;20052;-79
2023/10/15 14:00:19;;;;;;;;;;;;;;;;;;5123278;27;20501;-80
2023/10/15 14:02:46;;;;;;;0.10;0.10;;;;;;;;;;5123600;27;45677;-77
2023/10/15 14:05:15;;;;;;;0.20;0.20;;;;;;;;;;5129143;27;20130;-77
2023/10/15 14:07:44;;;;;;;0.90;0.90;;;;;;;;;;5120558;27;20956;-77
2023/10/15 14:10:12;;;;;;;0.10;0.10;;;;;;;;;;5122837;27;20532;-78
2023/10/15 14:12:39;;;;;;;0.10;0.10;;;;;;;;;;5126333;27;20047;-77
2023/10/15 14:15:06;;;;;;;0.10;0.10;;;;;;;;;;5122936;27;20052;-79
2023/10/15 14:17:32;;;;;;;0.10;0.10;;;;;;;;;;5107596;27;20162;-80
2023/10/15 14:19:59;;;;;;;0.10;0.10;;;;;;;;;;5123450;27;20066;-77
2023/10/15 14:22:25;;;;;;;0.10;0.10;;;;;;;;;;5120828;27;20058;-79
2023/10/15 14:24:53;;;;;;;0.10;0.10;;;;;;;;;;5115155;27;20079;-77
2023/10/15 14:27:19;;;;;;;0.10;0.10;;;;;;;;;;5135197;27;20116;-77
2023/10/15 14:29:46;;;;;;;0.10;0.10;;;;;;;;;;5132506;27;20086;-78
2023/10/15 14:32:13;;;;;;;0.10;0.10;;;;;;;;;;5125168;27;20055;-77
2023/10/15 14:34:39;;;;;;;0.10;0.10;;;;;;;;;;5125195;27;20052;-77
2023/10/15 14:37:06;;;;;;;0.10;0.10;;;;;;;;;;5126316;27;20555;-79
2023/10/15 14:39:32;;;;;;;0.03;0.03;;;;;;;;;;5126371;27;20058;-79
2023/10/15 14:41:59;;;;;;;0.10;0.10;;;;;;;;;;5133844;27;20052;-79
2023/10/15 14:44:25;;;;;;;0.10;0.10;;;;;;;;;;5111405;27;20063;-79
2023/10/15 14:46:52;;;;;;;0.00;0.00;;;;;;;;;;5128486;27;20517;-77
2023/10/15 14:49:18;;;;;;;0.10;0.10;;;;;;;;;;5118060;27;20101;-78
2023/10/15 14:51:45;;;;;;;0.10;0.10;;;;;;;;;;5130697;27;20056;-77
2023/10/15 14:54:11;;;;;;;0.10;0.10;;;;;;;;;;5129160;27;20056;-82
2023/10/15 14:56:37;;;;;;;0.10;0.10;;;;;;;;;;5134587;27;20140;-80
2023/10/15 14:59:06;;;;;;;0.20;0.20;;;;;;;;;;5111224;27;21001;-80
2023/10/15 15:01:33;;;;;;;0.10;0.10;;;;;;;;;;5130345;27;20056;-80
2023/10/15 15:03:59;;;;;;;0.10;0.10;;;;;;;;;;5124546;27;20051;-80
2023/10/15 15:06:26;;;;;;;0.10;0.10;;;;;;;;;;5133412;27;20078;-78
2023/10/15 15:08:53;;;;;;;0.10;0.10;;;;;;;;;;5111808;27;20048;-77
2023/10/15 15:11:19;;;;;;;0.10;0.10;;;;;;;;;;5122821;27;20458;-78